createdAt,value
2017-11-05T13:38:15.793Z,99.90
2017-11-05T13:40:43.290Z,99.90
2017-11-05T13:43:10.792Z,99.90
2017-11-05T13:45:38.367Z,99.90
2017-11-05T13:48:05.986Z,99.90
2017-11-05T13:50:33.463Z,99.90
2017-11-05T13:55:01.469Z,99.90
2017-11-05T13:57:28.986Z,99.90
2017-11-05T13:59:56.611Z,99.90
2017-11-05T14:02:24.290Z,99.90
2017-11-05T14:04:51.822Z,99.90
2017-11-05T14:07:19.344Z,99.90
2017-11-05T14:09:46.830Z,99.90
2017-11-05T14:12:14.353Z,99.90
2017-11-05T14:14:41.927Z,99.90
2017-11-05T14:17:10.188Z,99.90
2017-11-05T14:19:37.784Z,99.90
2017-11-05T14:22:05.348Z,99.90
2017-11-05T14:24:32.841Z,99.90
2017-11-05T14:27:00.330Z,99.90
2017-11-05T14:29:27.823Z,99.90
2017-11-05T14:31:55.313Z,99.90
2017-11-05T14:34:22.870Z,99.90
2017-11-05T14:36:50.390Z,99.90
2017-11-05T14:39:17.897Z,99.90
2017-11-05T14:41:45.396Z,99.90
2017-11-05T14:44:12.874Z,99.90
2017-11-05T14:46:41.291Z,99.90
2017-11-05T14:49:08.943Z,99.90
2017-11-05T14:51:36.641Z,99.90
2017-11-05T14:54:04.137Z,99.90
2017-11-05T14:56:32.409Z,99.90
2017-11-05T14:59:00.679Z,99.90
2017-11-05T15:01:28.926Z,99.90
2017-11-05T15:03:56.422Z,99.90
2017-11-05T15:06:24.663Z,99.90
2017-11-05T15:08:52.235Z,99.90
2017-11-05T15:11:19.747Z,99.90
2017-11-05T15:13:47.271Z,99.90
2017-11-05T15:16:14.799Z,99.90
2017-11-05T15:18:43.783Z,99.90
2017-11-05T15:21:11.275Z,99.90
2017-11-05T15:23:44.359Z,99.90
2017-11-05T15:26:12.745Z,99.90
2017-11-05T15:28:41.091Z,99.90
2017-11-05T15:31:08.578Z,99.90
2017-11-05T15:33:36.839Z,99.90
2017-11-05T15:36:04.395Z,99.90
2017-11-05T15:38:31.878Z,99.90
2017-11-05T15:41:00.319Z,99.90
2017-11-05T15:43:27.915Z,99.90
2017-11-05T15:45:56.147Z,99.90
2017-11-05T15:48:23.672Z,99.90
2017-11-05T15:50:51.147Z,99.90
2017-11-05T15:53:18.638Z,99.90
2017-11-05T15:55:46.147Z,99.90
2017-11-05T15:58:13.655Z,99.90
2017-11-05T16:00:41.234Z,99.90
2017-11-05T16:03:09.629Z,99.90
2017-11-05T16:05:37.119Z,99.90
2017-11-05T16:08:04.673Z,99.90
2017-11-05T16:10:32.157Z,99.90
2017-11-05T16:12:59.644Z,99.90
2017-11-05T16:15:27.900Z,99.90
2017-11-05T16:17:55.389Z,99.90
2017-11-05T16:20:22.891Z,99.90
2017-11-05T16:22:50.603Z,99.90
2017-11-05T16:25:18.292Z,99.90
2017-11-05T16:27:45.823Z,99.90
2017-11-05T16:30:14.070Z,99.90
2017-11-05T16:32:41.559Z,99.90
2017-11-05T16:35:09.039Z,99.90
2017-11-05T16:37:36.530Z,99.90
2017-11-05T16:40:04.048Z,99.90
2017-11-05T16:42:31.604Z,99.90
2017-11-05T16:44:59.087Z,99.90
2017-11-05T16:47:26.567Z,99.90
2017-11-05T16:49:54.044Z,99.90
2017-11-05T16:52:22.311Z,99.90
2017-11-05T16:54:49.955Z,99.90
2017-11-05T16:57:17.519Z,99.90
2017-11-05T16:59:45.008Z,99.90
2017-11-05T17:02:12.500Z,99.90
2017-11-05T17:04:39.988Z,99.90
2017-11-05T17:07:07.589Z,99.90
2017-11-05T17:09:35.486Z,99.90
2017-11-05T17:12:03.098Z,99.90
2017-11-05T17:14:30.701Z,99.90
2017-11-05T17:16:58.182Z,99.90
2017-11-05T17:19:26.536Z,99.90
2017-11-05T17:21:54.093Z,99.90
2017-11-05T17:24:21.563Z,99.90
2017-11-05T17:26:49.080Z,99.90
2017-11-05T17:29:16.783Z,99.90
2017-11-05T17:31:44.261Z,99.90
2017-11-05T17:34:11.747Z,99.90
2017-11-05T17:36:40.016Z,99.90
2017-11-05T17:39:07.498Z,99.90
2017-11-05T17:41:35.047Z,99.90
2017-11-05T17:44:02.737Z,99.90
2017-11-05T17:46:30.292Z,99.90
2017-11-05T17:48:57.761Z,99.90
2017-11-05T17:51:25.262Z,99.90
2017-11-05T17:53:52.739Z,99.90
2017-11-05T17:56:20.981Z,99.90
2017-11-05T17:58:48.574Z,99.90
2017-11-05T18:01:16.863Z,99.90
2017-11-05T18:03:44.513Z,99.90
2017-11-05T18:06:12.055Z,99.90
2017-11-05T18:08:39.571Z,99.90
2017-11-05T18:11:07.070Z,99.90
2017-11-05T18:13:35.305Z,99.90
2017-11-05T18:16:02.805Z,99.90
2017-11-05T18:18:30.338Z,99.90
2017-11-05T18:20:57.938Z,99.90
2017-11-05T18:23:25.443Z,99.90
2017-11-05T18:25:52.997Z,99.90
2017-11-05T18:28:21.234Z,99.90
2017-11-05T18:30:48.698Z,99.90
2017-11-05T18:33:16.219Z,99.90
2017-11-05T18:35:43.767Z,99.90
2017-11-05T18:38:11.272Z,99.90
2017-11-05T18:40:38.763Z,99.90
2017-11-05T18:43:06.262Z,99.90
2017-11-05T18:45:34.503Z,99.90
2017-11-05T18:48:01.984Z,99.90
2017-11-05T18:50:29.515Z,99.90
2017-11-05T18:52:57.231Z,99.90
2017-11-05T18:55:24.717Z,99.90
2017-11-05T18:57:52.235Z,99.90
2017-11-05T19:00:20.557Z,99.90
2017-11-05T19:02:48.053Z,99.90
2017-11-05T19:05:16.295Z,99.90
2017-11-05T19:07:43.808Z,99.90
2017-11-05T19:10:12.061Z,99.90
2017-11-05T19:12:40.381Z,99.90
2017-11-05T19:15:07.962Z,99.90
2017-11-05T19:17:35.487Z,99.90
2017-11-05T19:20:03.126Z,99.90
2017-11-05T19:22:31.416Z,99.90
2017-11-05T19:24:59.650Z,99.90
2017-11-05T19:27:27.139Z,99.90
2017-11-05T19:29:55.371Z,99.90
2017-11-05T19:32:22.887Z,99.90
2017-11-05T19:34:50.407Z,99.90
2017-11-05T19:37:17.950Z,99.90
2017-11-05T19:39:45.446Z,99.90
2017-11-05T19:42:13.675Z,99.90
2017-11-05T19:44:41.174Z,99.90
2017-11-05T19:47:08.698Z,99.90
2017-11-05T19:49:36.410Z,99.90
2017-11-05T19:52:05.170Z,99.90
2017-11-05T19:54:32.811Z,99.90
2017-11-05T19:57:01.215Z,99.90
2017-11-05T19:59:29.611Z,99.90
2017-11-05T20:01:57.096Z,99.90
2017-11-05T20:04:24.568Z,99.90
2017-11-05T20:06:52.072Z,99.90
2017-11-05T20:09:19.608Z,99.90
2017-11-05T20:11:47.107Z,99.90
2017-11-05T20:14:14.592Z,99.90
2017-11-05T20:16:42.066Z,99.90
2017-11-05T20:19:09.574Z,99.90
2017-11-05T20:21:37.059Z,99.90
2017-11-05T20:24:04.580Z,99.90
2017-11-05T20:26:32.099Z,99.90
2017-11-05T20:28:59.625Z,99.90
2017-11-05T20:31:27.147Z,99.80
2017-11-05T20:33:54.647Z,99.50
2017-11-05T20:36:22.167Z,99.90
2017-11-05T20:38:50.456Z,99.80
2017-11-05T20:41:18.025Z,99.80
2017-11-05T20:43:45.716Z,99.80
2017-11-05T20:46:13.331Z,99.80
2017-11-05T20:48:40.806Z,99.80
2017-11-05T20:51:08.314Z,99.80
2017-11-05T20:53:35.811Z,99.90
2017-11-05T20:56:03.303Z,99.90
2017-11-05T20:58:30.830Z,99.90
2017-11-05T21:00:58.294Z,99.60
2017-11-05T21:03:25.806Z,99.90
2017-11-05T21:05:54.062Z,99.50
2017-11-05T21:08:21.550Z,99.40
2017-11-05T21:10:49.046Z,99.50
2017-11-05T21:13:16.664Z,99.50
2017-11-05T21:15:44.223Z,99.40
2017-11-05T21:18:11.718Z,99.40
2017-11-05T21:20:39.236Z,99.40
2017-11-05T21:23:07.480Z,99.40
2017-11-05T21:25:34.978Z,99.30
2017-11-05T21:28:02.560Z,99.70
2017-11-05T21:30:30.317Z,99.30
2017-11-05T21:32:57.903Z,99.30
2017-11-05T21:35:25.420Z,99.30
2017-11-05T21:37:53.638Z,99.10
2017-11-05T21:40:21.128Z,99.10
2017-11-05T21:42:49.387Z,99.00
2017-11-05T21:45:16.870Z,99.00
2017-11-05T21:47:44.380Z,99.10
2017-11-05T21:50:11.982Z,99.00
2017-11-05T21:52:39.576Z,99.00
2017-11-05T21:55:07.047Z,99.00
2017-11-05T21:57:34.531Z,99.00
2017-11-05T22:00:02.026Z,99.00
2017-11-05T22:02:29.626Z,99.00
2017-11-05T22:04:57.189Z,99.00
2017-11-05T22:07:24.725Z,99.00
2017-11-05T22:09:52.214Z,99.00
2017-11-05T22:12:19.706Z,99.00
2017-11-05T22:14:47.951Z,99.00
2017-11-05T22:17:15.581Z,99.00
2017-11-05T22:19:44.335Z,98.90
2017-11-05T22:22:11.975Z,98.90
2017-11-05T22:24:39.551Z,99.10
2017-11-05T22:27:07.109Z,98.80
2017-11-05T22:29:35.334Z,99.10
2017-11-05T22:32:02.854Z,99.00
2017-11-05T22:34:30.335Z,99.00
2017-11-05T22:36:57.823Z,98.90
2017-11-05T22:39:25.455Z,99.00
2017-11-05T22:41:53.068Z,98.90
2017-11-05T22:44:21.356Z,98.80
2017-11-05T22:46:49.610Z,98.80
2017-11-05T22:49:17.128Z,98.80
2017-11-05T22:51:45.396Z,98.70
2017-11-05T22:54:12.864Z,98.70
2017-11-05T22:56:40.382Z,98.70
2017-11-05T22:59:08.643Z,98.60
2017-11-05T23:01:36.916Z,98.60
2017-11-05T23:04:04.481Z,98.50
2017-11-05T23:06:31.947Z,98.50
2017-11-05T23:08:59.487Z,98.50
2017-11-05T23:11:27.730Z,98.40
2017-11-05T23:13:55.212Z,98.40
2017-11-05T23:16:23.485Z,98.70
2017-11-05T23:18:51.154Z,98.40
2017-11-05T23:21:18.787Z,98.40
2017-11-05T23:23:46.377Z,98.40
2017-11-05T23:26:13.861Z,98.30
2017-11-05T23:28:41.332Z,98.30
2017-11-05T23:31:08.814Z,98.20
2017-11-05T23:33:36.376Z,98.20
2017-11-05T23:36:03.967Z,98.20
2017-11-05T23:38:31.531Z,98.10
2017-11-05T23:40:59.867Z,98.10
2017-11-05T23:43:27.334Z,98.10
2017-11-05T23:45:54.811Z,98.10
2017-11-05T23:48:23.070Z,98.10
2017-11-05T23:50:50.551Z,98.10
2017-11-05T23:53:18.855Z,98.10
2017-11-05T23:55:46.502Z,98.10
2017-11-05T23:58:14.039Z,98.00
